Time;durP1;ratioP1;P1;durP2;ratioP2;P2;SDS_P1;SDS_P2;PMS_P1;PMS_P2;Temp;Humidity;BMP_temperature;BMP_pressure;BME280_temperature;BME280_humidity;BME280_pressure;Samples;Min_cycle;Max_cycle;Signal;HPM_P1;HPM_P2
2023/01/22 00:01:25;;;;;;;29.55;19.63;;;;;;;0.10;100.00;103251.44;5326925;27;20019;-76
2023/01/22 00:03:57;;;;;;;29.45;19.70;;;;;;;0.07;100.00;103254.88;5325164;27;20034;-76
2023/01/22 00:06:28;;;;;;;30.88;20.48;;;;;;;0.04;100.00;103254.03;5325531;27;20114;-76
2023/01/22 00:09:02;;;;;;;32.92;21.73;;;;;;;0.03;100.00;103260.91;5323837;27;20023;-76
2023/01/22 00:11:33;;;;;;;31.02;20.50;;;;;;;0.03;100.00;103260.91;5320204;27;20026;-76
2023/01/22 00:14:05;;;;;;;30.42;19.30;;;;;;;0.11;100.00;103258.31;5325996;27;20019;-76
2023/01/22 00:16:36;;;;;;;31.30;21.80;;;;;;;0.03;100.00;103254.91;5322150;27;20034;-77
2023/01/22 00:19:08;;;;;;;31.13;20.80;;;;;;;0.06;100.00;103263.47;5328387;27;20477;-77
2023/01/22 00:21:39;;;;;;;29.88;20.05;;;;;;;0.09;100.00;103257.47;5327452;27;20023;-77
2023/01/22 00:24:11;;;;;;;28.70;19.85;;;;;;;0.11;100.00;103254.00;5332392;27;20019;-77
2023/01/22 00:26:42;;;;;;;28.20;20.02;;;;;;;0.10;100.00;103262.63;5330890;27;20024;-77
2023/01/22 00:29:13;;;;;;;28.13;19.67;;;;;;;0.17;100.00;103263.47;5329201;27;20429;-76
2023/01/22 00:31:45;;;;;;;27.95;18.25;;;;;;;0.24;100.00;103257.44;5326933;27;20019;-76
2023/01/22 00:34:16;;;;;;;30.50;20.45;;;;;;;0.17;100.00;103258.31;5320232;27;20019;-78
2023/01/22 00:36:47;;;;;;;30.20;20.42;;;;;;;0.20;100.00;103248.00;5323241;27;20016;-78
2023/01/22 00:39:18;;;;;;;26.88;19.30;;;;;;;0.20;100.00;103251.44;5326151;27;20019;-77
2023/01/22 00:41:50;;;;;;;27.60;19.17;;;;;;;0.20;100.00;103241.13;5323331;27;20035;-79
2023/01/22 00:44:21;;;;;;;30.90;19.98;;;;;;;0.14;100.00;103228.22;5324389;27;20077;-77
2023/01/22 00:46:52;;;;;;;26.45;19.88;;;;;;;0.18;100.00;103244.56;5323881;27;20130;-77
2023/01/22 00:49:24;;;;;;;27.73;19.95;;;;;;;0.13;100.00;103236.84;5321980;27;20472;-76
2023/01/22 00:51:55;;;;;;;27.67;20.02;;;;;;;0.16;100.00;103251.44;5325485;27;20020;-77
2023/01/22 00:54:26;;;;;;;30.45;21.10;;;;;;;0.10;100.00;103239.41;5325898;27;20015;-79
2023/01/22 00:56:58;;;;;;;28.58;21.33;;;;;;;0.10;100.00;103248.88;5325715;27;20638;-77
2023/01/22 00:59:29;;;;;;;30.90;21.25;;;;;;;0.08;100.00;103243.75;5329393;27;20023;-78
2023/01/22 01:02:00;;;;;;;26.90;18.88;;;;;;;0.10;100.00;103231.69;5327646;27;20389;-76
2023/01/22 01:04:31;;;;;;;28.92;20.73;;;;;;;0.07;100.00;103229.09;5325527;27;20027;-77
2023/01/22 01:07:03;;;;;;;27.48;19.55;;;;;;;0.10;100.00;103230.84;5324638;27;20019;-76
2023/01/22 01:09:35;;;;;;;26.58;19.20;;;;;;;0.08;100.00;103233.44;5323992;27;20027;-77
2023/01/22 01:12:08;;;;;;;27.30;19.65;;;;;;;0.03;100.00;103219.66;5307413;27;20012;-77
2023/01/22 01:14:39;;;;;;;28.10;19.30;;;;;;;0.03;100.00;103221.41;5319594;27;20059;-76
2023/01/22 01:17:10;;;;;;;27.13;19.65;;;;;;;0.01;100.00;103213.69;5322768;27;20054;-77
2023/01/22 01:19:42;;;;;;;26.50;18.75;;;;;;;0.01;100.00;103216.25;5321920;27;20083;-77
2023/01/22 01:22:13;;;;;;;27.60;19.30;;;;;;;-0.04;100.00;103213.69;5324294;27;20135;-78
2023/01/22 01:24:44;;;;;;;23.83;18.77;;;;;;;-0.06;100.00;103215.41;5326205;27;20507;-78
2023/01/22 01:27:15;;;;;;;23.90;17.90;;;;;;;-0.04;100.00;103216.28;5327424;27;20023;-77
2023/01/22 01:29:47;;;;;;;26.05;19.75;;;;;;;-0.07;100.00;103215.44;5325040;27;20139;-77
2023/01/22 01:32:18;;;;;;;26.05;19.02;;;;;;;-0.07;100.00;103223.16;5326701;27;20030;-76
2023/01/22 01:34:49;;;;;;;25.55;18.77;;;;;;;-0.09;100.00;103218.00;5318734;27;20053;-76
2023/01/22 01:37:21;;;;;;;27.10;20.80;;;;;;;-0.08;100.00;103217.13;5327828;27;20027;-77
2023/01/22 01:39:52;;;;;;;27.50;19.55;;;;;;;-0.19;100.00;103198.28;5327399;27;20019;-77
2023/01/22 01:42:28;;;;;;;24.05;18.73;;;;;;;-0.14;100.00;103200.84;5323769;27;20047;-77
2023/01/22 01:45:21;;;;;;;28.20;19.90;;;;;;;0.08;100.00;103202.50;5306428;27;20027;-77
2023/01/22 01:48:01;;;;;;;26.80;19.60;;;;;;;0.00;100.00;103188.78;5325649;27;20023;-77
2023/01/22 01:50:32;;;;;;;24.75;18.80;;;;;;;-0.21;100.00;103187.09;5323100;27;20441;-77
2023/01/22 01:53:04;;;;;;;25.00;18.73;;;;;;;-0.18;100.00;103181.09;5307735;27;20200;-76
2023/01/22 01:55:38;;;;;;;26.55;20.05;;;;;;;-0.21;100.00;103163.06;5307130;27;20088;-77
2023/01/22 01:58:17;;;;;;;24.77;18.23;;;;;;;-0.31;100.00;103170.78;5329309;27;20041;-77
2023/01/22 02:00:53;;;;;;;25.15;18.33;;;;;;;-0.29;100.00;103170.81;5306204;27;20016;-77
2023/01/22 02:03:25;;;;;;;25.17;17.80;;;;;;;-0.26;100.00;103168.25;5325325;27;20027;-76
2023/01/22 02:05:57;;;;;;;22.15;17.20;;;;;;;-0.25;100.00;103181.09;5325338;27;20025;-76
2023/01/22 02:08:28;;;;;;;27.10;18.92;;;;;;;-0.35;100.00;103171.66;5327527;27;20024;-76
2023/01/22 02:11:00;;;;;;;24.55;17.85;;;;;;;-0.25;100.00;103173.38;5316246;28;20034;-76
2023/01/22 02:13:34;;;;;;;25.90;18.15;;;;;;;-0.20;100.00;103177.66;5326015;27;20039;-76
2023/01/22 02:16:06;;;;;;;25.48;19.08;;;;;;;-0.28;100.00;103177.66;5327083;27;20020;-76
2023/01/22 02:18:38;;;;;;;25.50;18.48;;;;;;;-0.31;100.00;103183.69;5325177;27;20126;-76
2023/01/22 02:21:31;;;;;;;24.58;18.08;;;;;;;-0.09;100.00;103171.59;5327292;27;20540;-76
2023/01/22 02:24:11;;;;;;;23.80;17.70;;;;;;;-0.21;100.00;103157.91;5329498;27;20027;-76
2023/01/22 02:26:44;;;;;;;24.15;17.75;;;;;;;-0.36;100.00;103158.81;5326835;28;20102;-76
2023/01/22 02:29:15;;;;;;;22.80;17.63;;;;;;;-0.35;100.00;103166.50;5322960;28;20438;-77
2023/01/22 02:31:47;;;;;;;23.20;17.73;;;;;;;-0.36;100.00;103164.81;5330870;28;20019;-76
2023/01/22 02:34:18;;;;;;;26.77;18.25;;;;;;;-0.39;100.00;103164.81;5323730;28;20340;-76
2023/01/22 02:36:51;;;;;;;23.60;17.50;;;;;;;-0.31;100.00;103164.78;5326711;28;20065;-77
2023/01/22 02:39:22;;;;;;;25.23;18.50;;;;;;;-0.29;100.00;103171.66;5320691;27;20085;-75
2023/01/22 02:41:53;;;;;;;24.30;18.15;;;;;;;-0.31;100.00;103169.94;5333820;27;20047;-77
2023/01/22 02:44:25;;;;;;;25.25;17.90;;;;;;;-0.34;100.00;103168.25;5311080;27;20031;-76
2023/01/22 02:46:56;;;;;;;23.95;17.05;;;;;;;-0.38;100.00;103158.81;5333333;27;20027;-76
2023/01/22 02:49:27;;;;;;;23.27;16.85;;;;;;;-0.41;100.00;103176.84;5329446;27;20023;-76
2023/01/22 02:51:58;;;;;;;22.05;16.85;;;;;;;-0.39;100.00;103157.09;5332069;27;20031;-75
2023/01/22 02:54:30;;;;;;;22.88;16.45;;;;;;;-0.42;100.00;103141.63;5324316;27;20024;-76
2023/01/22 02:57:01;;;;;;;22.65;16.92;;;;;;;-0.37;100.00;103155.38;5320972;27;20715;-76
2023/01/22 02:59:33;;;;;;;22.63;16.65;;;;;;;-0.31;100.00;103167.38;5326790;27;20030;-78
2023/01/22 03:02:04;;;;;;;25.77;18.38;;;;;;;-0.31;100.00;103167.38;5326277;27;20031;-76
2023/01/22 03:04:35;;;;;;;22.75;17.58;;;;;;;-0.23;100.00;103169.94;5329444;27;20030;-77
2023/01/22 03:07:07;;;;;;;23.33;16.67;;;;;;;-0.20;100.00;103165.63;5329377;27;20028;-76
2023/01/22 03:09:38;;;;;;;20.58;15.93;;;;;;;-0.11;100.00;103157.03;5333247;27;20027;-78
2023/01/22 03:12:11;;;;;;;20.02;15.38;;;;;;;-0.08;100.00;103159.56;5329471;27;20031;-76
2023/01/22 03:23:15;;;;;;;18.45;14.23;;;;;;;0.23;100.00;103165.50;5330847;27;20031;-76
2023/01/22 03:25:46;;;;;;;20.02;14.40;;;;;;;0.26;100.00;103156.88;5332547;27;20353;-75
2023/01/22 03:28:18;;;;;;;21.42;14.00;;;;;;;0.26;100.00;103143.97;5332597;27;20024;-75
2023/01/22 03:30:49;;;;;;;18.70;14.10;;;;;;;0.35;100.00;103154.28;5328485;27;20024;-76
2023/01/22 03:33:20;;;;;;;19.90;14.88;;;;;;;0.39;100.00;103146.50;5310230;27;20080;-76
2023/01/22 03:35:52;;;;;;;18.00;13.70;;;;;;;0.43;100.00;103152.50;5320456;27;20438;-78
2023/01/22 03:38:23;;;;;;;18.98;14.70;;;;;;;0.46;100.00;103144.75;5326798;27;20042;-75
2023/01/22 03:41:20;;;;;;;20.65;14.95;;;;;;;0.77;100.00;103141.97;5330197;27;20535;-77
2023/01/22 03:43:52;;;;;;;18.50;13.48;;;;;;;0.55;100.00;103141.25;5327784;27;20100;-75
2023/01/22 03:46:23;;;;;;;16.80;13.55;;;;;;;0.55;100.00;103124.06;5329492;27;20434;-75
2023/01/22 03:48:55;;;;;;;17.13;13.68;;;;;;;0.55;100.00;103120.63;5329341;27;20389;-75
2023/01/22 03:51:27;;;;;;;17.13;13.50;;;;;;;0.57;100.00;103131.78;5329951;27;20140;-75
2023/01/22 03:53:58;;;;;;;17.63;14.45;;;;;;;0.53;100.00;103128.38;5334538;27;20048;-76
2023/01/22 03:56:30;;;;;;;17.48;14.30;;;;;;;0.48;100.00;103125.81;5328165;27;20053;-76
2023/01/22 03:59:01;;;;;;;18.20;13.93;;;;;;;0.55;100.00;103131.78;5327839;27;20027;-76
2023/01/22 04:01:33;;;;;;;20.92;15.40;;;;;;;0.48;100.00;103123.22;5319307;27;20477;-76
2023/01/22 04:04:04;;;;;;;19.27;14.30;;;;;;;0.47;100.00;103136.16;5327283;27;20039;-75
2023/01/22 04:06:36;;;;;;;18.42;14.35;;;;;;;0.46;100.00;103132.72;5327881;27;20031;-76
2023/01/22 04:09:07;;;;;;;18.08;14.98;;;;;;;0.44;100.00;103133.56;5311024;27;20046;-76
2023/01/22 04:11:38;;;;;;;17.92;14.05;;;;;;;0.46;100.00;103135.28;5331777;27;20055;-76
2023/01/22 04:14:10;;;;;;;17.27;13.80;;;;;;;0.37;100.00;103129.31;5327722;27;20024;-75
2023/01/22 04:16:41;;;;;;;16.90;13.82;;;;;;;0.35;100.00;103133.63;5328276;27;20103;-76
2023/01/22 04:19:15;;;;;;;17.80;14.25;;;;;;;0.36;100.00;103127.63;5330813;27;20023;-76
2023/01/22 04:21:47;;;;;;;20.50;14.05;;;;;;;0.36;100.00;103130.19;5323732;27;20022;-75
2023/01/22 04:24:19;;;;;;;16.77;13.90;;;;;;;0.33;100.00;103120.75;5329802;27;20063;-75
2023/01/22 04:26:51;;;;;;;17.60;13.98;;;;;;;0.41;100.00;103125.84;5324143;27;20506;-75
2023/01/22 04:29:22;;;;;;;17.63;14.20;;;;;;;0.43;100.00;103126.72;5327260;27;20026;-75
2023/01/22 04:31:54;;;;;;;17.98;14.40;;;;;;;0.45;100.00;103130.97;5330296;27;20274;-75
2023/01/22 04:34:25;;;;;;;16.13;13.30;;;;;;;0.42;100.00;103123.28;5329271;27;20401;-76
2023/01/22 04:36:56;;;;;;;18.80;14.90;;;;;;;0.51;100.00;103131.81;5331760;27;20027;-75
2023/01/22 04:39:28;;;;;;;16.40;14.13;;;;;;;0.38;100.00;103100.06;5328132;27;20028;-75
2023/01/22 04:41:59;;;;;;;19.08;14.75;;;;;;;0.51;100.00;103122.38;5308541;27;20058;-75
2023/01/22 04:44:30;;;;;;;20.52;15.07;;;;;;;0.53;100.00;103130.97;5328243;27;20031;-74
2023/01/22 04:47:02;;;;;;;20.60;15.18;;;;;;;0.57;100.00;103135.22;5328759;27;20102;-74
2023/01/22 04:49:33;;;;;;;19.30;14.85;;;;;;;0.61;100.00;103131.75;5326254;27;20031;-74
2023/01/22 04:52:04;;;;;;;19.17;14.25;;;;;;;0.63;100.00;103122.28;5333063;27;20038;-74
2023/01/22 04:54:35;;;;;;;22.75;15.07;;;;;;;0.59;100.00;103118.00;5329880;27;20035;-74
2023/01/22 04:57:07;;;;;;;16.67;13.18;;;;;;;0.62;100.00;103124.88;5328636;27;20601;-74
2023/01/22 04:59:38;;;;;;;16.92;14.18;;;;;;;0.66;100.00;103119.69;5330456;27;20066;-74
2023/01/22 05:02:09;;;;;;;16.30;13.30;;;;;;;0.65;100.00;103117.97;5329286;27;20420;-74
2023/01/22 05:04:41;;;;;;;16.73;13.95;;;;;;;0.63;100.00;103111.09;5327728;27;20023;-75
2023/01/22 05:07:12;;;;;;;16.88;13.07;;;;;;;0.62;100.00;103111.97;5327197;27;20026;-75
2023/01/22 05:09:43;;;;;;;17.15;12.70;;;;;;;0.61;100.00;103111.13;5328096;27;20496;-76
2023/01/22 05:12:15;;;;;;;15.55;12.93;;;;;;;0.62;100.00;103123.16;5325996;27;20442;-75
2023/01/22 05:14:46;;;;;;;19.13;14.00;;;;;;;0.67;100.00;103125.69;5325431;27;20027;-77
2023/01/22 05:17:17;;;;;;;17.30;12.80;;;;;;;0.66;100.00;103117.09;5330947;27;20114;-75
2023/01/22 05:19:49;;;;;;;14.73;12.45;;;;;;;0.67;100.00;103123.13;5328513;27;20035;-78
2023/01/22 05:22:20;;;;;;;16.77;13.48;;;;;;;0.61;100.00;103108.56;5325715;27;20035;-76
2023/01/22 05:24:51;;;;;;;15.23;12.00;;;;;;;0.62;100.00;103118.00;5304193;28;20035;-75
2023/01/22 05:27:23;;;;;;;14.82;12.50;;;;;;;0.68;100.00;103133.44;5328695;27;20106;-75
2023/01/22 05:29:54;;;;;;;17.13;12.90;;;;;;;0.70;100.00;103133.41;5325295;27;20028;-75
2023/01/22 05:32:25;;;;;;;15.98;13.20;;;;;;;0.71;100.00;103133.41;5326116;27;20019;-75
2023/01/22 05:34:56;;;;;;;16.08;12.48;;;;;;;0.66;100.00;103132.59;5328304;27;20019;-75
2023/01/22 05:37:29;;;;;;;17.70;13.32;;;;;;;0.78;100.00;103141.09;5328131;27;20066;-76
2023/01/22 05:40:00;;;;;;;14.80;12.43;;;;;;;0.77;100.00;103135.09;5326437;27;20072;-75
2023/01/22 05:42:32;;;;;;;17.10;13.18;;;;;;;0.75;100.00;103125.63;5330630;27;20031;-75
2023/01/22 05:45:03;;;;;;;17.35;12.90;;;;;;;0.70;100.00;103126.53;5327010;27;20027;-75
2023/01/22 05:47:35;;;;;;;17.55;13.40;;;;;;;0.74;100.00;103142.84;5325096;27;20102;-75
2023/01/22 05:50:07;;;;;;;16.35;13.40;;;;;;;0.72;100.00;103140.28;5328510;27;20083;-75
2023/01/22 05:52:38;;;;;;;15.07;12.68;;;;;;;0.75;100.00;103143.69;5326074;27;20020;-75
2023/01/22 05:55:09;;;;;;;15.63;12.25;;;;;;;0.73;100.00;103144.56;5327521;27;20023;-75
2023/01/22 05:57:41;;;;;;;16.40;13.13;;;;;;;0.75;100.00;103146.28;5328322;27;20050;-75
2023/01/22 06:00:13;;;;;;;16.30;13.38;;;;;;;0.74;100.00;103160.91;5330919;27;20742;-75
2023/01/22 06:02:44;;;;;;;16.85;13.13;;;;;;;0.72;100.00;103153.19;5324358;27;20041;-75
2023/01/22 06:05:15;;;;;;;16.58;12.95;;;;;;;0.80;100.00;103152.28;5326463;27;20084;-75
2023/01/22 06:07:47;;;;;;;16.17;12.30;;;;;;;0.77;100.00;103147.13;5330200;27;20039;-75
2023/01/22 06:10:18;;;;;;;16.67;13.52;;;;;;;0.80;100.00;103154.88;5325572;27;20496;-75
2023/01/22 06:12:49;;;;;;;14.77;12.82;;;;;;;0.82;100.00;103160.84;5327073;27;20037;-75
2023/01/22 06:15:20;;;;;;;15.98;12.57;;;;;;;0.79;100.00;103150.56;5309460;28;20027;-75
2023/01/22 06:17:52;;;;;;;16.95;13.02;;;;;;;0.75;100.00;103147.13;5326013;27;20027;-75
2023/01/22 06:20:23;;;;;;;17.52;13.75;;;;;;;0.81;100.00;103148.84;5310545;28;20032;-75
2023/01/22 06:22:54;;;;;;;18.15;12.93;;;;;;;0.77;100.00;103141.97;5324010;27;20510;-75
2023/01/22 06:25:26;;;;;;;15.93;13.10;;;;;;;0.84;100.00;103153.97;5308758;28;20373;-75
2023/01/22 06:27:58;;;;;;;16.23;13.70;;;;;;;0.80;100.00;103160.03;5321685;28;20169;-75
2023/01/22 06:30:29;;;;;;;15.70;12.45;;;;;;;0.82;100.00;103155.69;5324972;28;20106;-75
2023/01/22 06:33:01;;;;;;;17.92;13.95;;;;;;;0.84;100.00;103153.97;5323720;28;20483;-75
2023/01/22 06:35:32;;;;;;;19.90;13.82;;;;;;;0.82;100.00;103153.13;5327270;28;20114;-75
2023/01/22 06:38:03;;;;;;;15.32;12.98;;;;;;;0.85;100.00;103160.84;5326702;28;20746;-75
2023/01/22 06:40:35;;;;;;;18.33;14.55;;;;;;;0.84;100.00;103144.50;5326952;28;20512;-75
2023/01/22 06:43:07;;;;;;;16.95;13.35;;;;;;;0.89;100.00;103154.78;5322288;28;20039;-75
2023/01/22 06:45:39;;;;;;;12.05;10.50;;;;;;;0.99;100.00;103153.88;5324991;28;20047;-75
2023/01/22 06:48:10;;;;;;;15.70;13.10;;;;;;;0.92;100.00;103147.03;5306897;28;20031;-75
2023/01/22 06:50:42;;;;;;;15.27;12.90;;;;;;;0.98;100.00;103157.28;5311893;28;20027;-75
2023/01/22 06:53:13;;;;;;;16.83;13.48;;;;;;;0.96;100.00;103159.91;5327225;28;20019;-75
2023/01/22 06:55:45;;;;;;;16.65;13.30;;;;;;;0.96;100.00;103159.91;5324302;28;20038;-75
2023/01/22 06:58:16;;;;;;;17.63;12.63;;;;;;;0.94;100.00;103168.50;5322286;28;20075;-75
2023/01/22 07:00:47;;;;;;;18.05;13.30;;;;;;;0.95;100.00;103165.94;5319927;28;20037;-75
2023/01/22 07:03:19;;;;;;;15.30;13.13;;;;;;;0.89;100.00;103159.94;5325717;28;20020;-75
2023/01/22 07:05:57;;;;;;;15.68;13.13;;;;;;;1.01;100.00;103164.16;5325932;28;20149;-75
2023/01/22 07:08:31;;;;;;;17.65;13.80;;;;;;;0.96;100.00;103164.19;5318371;28;20036;-75
2023/01/22 07:11:03;;;;;;;16.13;13.52;;;;;;;0.98;100.00;103170.19;5323285;28;20059;-76
2023/01/22 07:13:35;;;;;;;16.48;12.65;;;;;;;0.97;100.00;103171.91;5316169;28;20020;-75
2023/01/22 07:16:07;;;;;;;17.75;13.60;;;;;;;0.99;100.00;103168.50;5318960;28;20019;-75
2023/01/22 07:18:38;;;;;;;16.38;13.63;;;;;;;1.00;100.00;103173.63;5321954;28;20027;-75
2023/01/22 07:21:10;;;;;;;16.23;12.88;;;;;;;1.02;100.00;103169.31;5320806;28;20471;-75
2023/01/22 07:23:41;;;;;;;16.42;12.90;;;;;;;1.01;100.00;103166.75;5318602;28;20023;-75
2023/01/22 07:26:13;;;;;;;14.68;12.43;;;;;;;1.01;100.00;103165.00;5307320;27;20026;-75
2023/01/22 07:28:45;;;;;;;16.52;13.15;;;;;;;1.00;100.00;103160.72;5328872;27;20161;-75
2023/01/22 07:31:16;;;;;;;18.15;14.02;;;;;;;1.08;100.00;103168.41;5326807;27;20014;-75
2023/01/22 07:33:47;;;;;;;17.30;14.00;;;;;;;1.06;100.00;103171.03;5325593;27;20027;-75
2023/01/22 07:36:19;;;;;;;16.25;13.18;;;;;;;1.06;100.00;103165.84;5323707;27;20027;-75
2023/01/22 07:38:50;;;;;;;17.02;13.25;;;;;;;1.07;100.00;103166.72;5322194;27;20069;-75
2023/01/22 07:41:21;;;;;;;18.15;14.00;;;;;;;1.05;100.00;103166.69;5331022;27;20495;-75
2023/01/22 07:43:55;;;;;;;16.63;13.63;;;;;;;0.99;100.00;103168.50;5330149;27;20153;-74
2023/01/22 07:46:27;;;;;;;17.05;13.82;;;;;;;1.02;100.00;103165.88;5329687;27;20030;-75
2023/01/22 07:48:58;;;;;;;15.82;14.05;;;;;;;1.06;100.00;103168.44;5319106;27;20090;-75
2023/01/22 07:51:29;;;;;;;16.73;13.38;;;;;;;1.10;100.00;103183.03;5325811;27;20049;-75
2023/01/22 07:54:02;;;;;;;16.13;12.90;;;;;;;1.11;100.00;103174.41;5317998;27;20043;-75
2023/01/22 07:56:33;;;;;;;16.55;13.13;;;;;;;1.06;100.00;103176.19;5323426;27;20045;-75
2023/01/22 07:59:04;;;;;;;17.17;13.85;;;;;;;1.09;100.00;103176.13;5327929;27;20031;-74
2023/01/22 08:01:36;;;;;;;14.57;12.93;;;;;;;1.12;100.00;103178.69;5324579;27;20035;-75
2023/01/22 08:04:07;;;;;;;16.67;13.25;;;;;;;1.10;100.00;103175.28;5309641;27;20409;-74
2023/01/22 08:06:38;;;;;;;14.85;12.23;;;;;;;1.14;100.00;103178.69;5319864;27;20040;-74
2023/01/22 08:09:10;;;;;;;14.90;12.13;;;;;;;1.18;100.00;103186.41;5328148;27;20035;-74
2023/01/22 08:11:41;;;;;;;15.65;13.52;;;;;;;1.18;100.00;103188.13;5309410;27;20031;-74
2023/01/22 08:14:12;;;;;;;15.43;12.73;;;;;;;1.20;100.00;103184.66;5323449;27;20110;-74
2023/01/22 08:16:43;;;;;;;15.10;13.02;;;;;;;1.25;100.00;103181.16;5325982;27;20448;-74
2023/01/22 08:19:15;;;;;;;15.70;12.77;;;;;;;1.21;100.00;103185.50;5327486;27;20101;-74
2023/01/22 08:21:46;;;;;;;15.25;12.15;;;;;;;1.29;100.00;103199.22;5326780;27;20073;-74
2023/01/22 08:24:17;;;;;;;16.33;12.68;;;;;;;1.33;100.00;103190.59;5329467;27;20534;-74
2023/01/22 08:26:49;;;;;;;15.73;12.60;;;;;;;1.34;100.00;103199.19;5326094;27;20301;-75
2023/01/22 08:29:20;;;;;;;15.30;12.02;;;;;;;1.42;100.00;103194.81;5326945;27;20035;-74
2023/01/22 08:31:52;;;;;;;17.08;12.25;;;;;;;1.43;100.00;103201.69;5323437;27;20023;-74
2023/01/22 08:34:23;;;;;;;14.95;13.00;;;;;;;1.51;100.00;103205.03;5314452;27;20099;-74
2023/01/22 08:36:54;;;;;;;13.73;11.68;;;;;;;1.53;100.00;103203.31;5321446;27;20040;-74
2023/01/22 08:39:26;;;;;;;14.50;12.95;;;;;;;1.56;100.00;103208.47;5323666;27;20015;-75
2023/01/22 08:41:57;;;;;;;14.13;11.50;;;;;;;1.56;100.00;103211.06;5324166;27;20039;-75
2023/01/22 08:44:28;;;;;;;13.68;11.93;;;;;;;1.44;100.00;103199.09;5320845;27;20122;-74
2023/01/22 08:47:00;;;;;;;14.00;11.13;;;;;;;1.47;100.00;103200.78;5325494;27;20460;-75
2023/01/22 08:49:31;;;;;;;12.73;10.10;;;;;;;1.48;100.00;103199.03;5320917;27;20530;-74
2023/01/22 08:52:02;;;;;;;16.23;11.02;;;;;;;1.49;100.00;103209.38;5321074;27;20392;-74
2023/01/22 08:54:34;;;;;;;12.63;9.93;;;;;;;1.48;100.00;103207.69;5322740;27;20077;-74
2023/01/22 08:57:05;;;;;;;13.05;10.45;;;;;;;1.58;100.00;103213.59;5306442;27;20221;-75
2023/01/22 08:59:36;;;;;;;12.07;10.30;;;;;;;1.63;100.00;103215.28;5323686;27;20027;-79
2023/01/22 09:02:12;;;;;;;12.07;9.82;;;;;;;1.69;100.00;103207.47;5323236;27;20038;-76
2023/01/22 09:04:44;;;;;;;12.38;10.02;;;;;;;1.62;100.00;103202.38;5321570;27;20043;-76
2023/01/22 09:07:15;;;;;;;13.05;10.00;;;;;;;1.66;100.00;103209.22;5323800;27;20023;-76
2023/01/22 09:09:46;;;;;;;13.93;10.32;;;;;;;1.62;100.00;103198.06;5323502;27;20102;-75
2023/01/22 09:12:18;;;;;;;10.50;9.40;;;;;;;1.62;100.00;103203.22;5326071;27;20418;-76
2023/01/22 09:14:49;;;;;;;12.48;9.48;;;;;;;1.63;100.00;103204.97;5323618;27;20084;-76
2023/01/22 09:17:20;;;;;;;15.23;9.43;;;;;;;1.63;100.00;103204.06;5324025;27;20023;-76
2023/01/22 09:19:52;;;;;;;13.20;10.57;;;;;;;1.71;100.00;103212.63;5327372;27;20136;-76
2023/01/22 09:22:23;;;;;;;10.88;8.85;;;;;;;1.74;100.00;103209.16;5325266;27;20024;-76
2023/01/22 09:24:54;;;;;;;13.30;9.93;;;;;;;1.75;100.00;103218.63;5317236;28;20099;-76
2023/01/22 09:27:26;;;;;;;13.70;10.68;;;;;;;1.73;100.00;103212.59;5321791;27;20039;-76
2023/01/22 09:29:57;;;;;;;13.48;9.55;;;;;;;1.76;100.00;103216.03;5324053;27;20103;-76
2023/01/22 09:32:29;;;;;;;12.30;10.00;;;;;;;1.72;100.00;103208.31;5323149;27;20027;-75
2023/01/22 09:35:00;;;;;;;12.57;9.57;;;;;;;1.67;100.00;103195.44;5320916;27;20578;-76
2023/01/22 09:37:31;;;;;;;11.70;9.60;;;;;;;1.75;100.00;103218.63;5307647;28;20118;-76
2023/01/22 09:40:03;;;;;;;11.77;10.32;;;;;;;1.76;100.00;103215.16;5325537;27;20019;-76
2023/01/22 09:42:39;;;;;;;10.75;9.05;;;;;;;1.84;100.00;103218.53;5322105;27;20442;-76
2023/01/22 09:45:12;;;;;;;13.80;10.20;;;;;;;1.90;100.00;103223.66;5323581;27;20027;-76
2023/01/22 09:47:48;;;;;;;;;;;;;;;2.43;100.00;103223.03;5324704;27;20085;-75
2023/01/22 09:50:20;;;;;;;12.02;9.70;;;;;;;2.02;100.00;103220.91;5320514;27;20309;-76
2023/01/22 09:52:55;;;;;;;11.75;9.77;;;;;;;2.04;100.00;103231.22;5319690;27;20073;-76
2023/01/22 09:55:29;;;;;;;12.23;9.23;;;;;;;1.90;100.00;103215.88;5324022;27;20530;-76
2023/01/22 09:58:04;;;;;;;16.95;9.73;;;;;;;1.95;100.00;103227.03;5321045;27;20052;-76
2023/01/22 10:00:43;;;;;;;10.93;8.88;;;;;;;1.98;100.00;103229.59;5317179;27;20032;-76
2023/01/22 10:03:23;;;;;;;13.30;9.88;;;;;;;1.94;100.00;103222.75;5317852;27;20019;-76
2023/01/22 10:05:58;;;;;;;11.95;9.23;;;;;;;1.87;100.00;103226.25;5303019;27;20031;-75
2023/01/22 10:09:12;;;;;;;11.00;9.07;;;;;;;2.10;100.00;103224.28;5324063;27;20445;-75
2023/01/22 10:11:51;;;;;;;11.52;9.63;;;;;;;1.90;100.00;103226.22;5313515;27;20034;-75
2023/01/22 10:14:26;;;;;;;10.93;9.63;;;;;;;1.86;100.00;103232.31;5326039;27;20497;-75
2023/01/22 10:17:00;;;;;;;14.65;10.15;;;;;;;1.81;100.00;103224.56;5326975;27;20019;-75
2023/01/22 10:19:41;;;;;;;13.07;9.70;;;;;;;1.93;100.00;103231.34;5324578;27;20023;-75
2023/01/22 10:22:21;;;;;;;21.25;11.93;;;;;;;2.00;100.00;103245.91;5324381;27;20059;-75
2023/01/22 10:24:53;;;;;;;14.07;10.55;;;;;;;1.89;100.00;103240.84;5319121;27;20320;-75
2023/01/22 10:27:38;;;;;;;13.65;9.70;;;;;;;2.03;100.00;103240.72;5324367;28;20035;-75
2023/01/22 10:30:27;;;;;;;12.05;9.90;;;;;;;2.10;100.00;103226.00;5305270;28;20054;-75
2023/01/22 10:33:04;;;;;;;12.00;9.52;;;;;;;2.00;100.00;103225.25;5322008;28;20512;-75
2023/01/22 10:35:46;;;;;;;14.65;9.70;;;;;;;2.00;100.00;103225.25;5306922;28;20050;-76
2023/01/22 10:38:22;;;;;;;10.45;9.27;;;;;;;1.96;100.00;103215.81;5325206;28;20050;-76
2023/01/22 10:40:57;;;;;;;11.63;8.77;;;;;;;1.86;100.00;103214.22;5324318;28;20511;-76
2023/01/22 10:43:37;;;;;;;10.45;8.88;;;;;;;1.97;100.00;103220.13;5321800;28;20455;-76
2023/01/22 10:46:22;;;;;;;12.68;9.63;;;;;;;2.06;100.00;103227.78;5304776;28;20480;-76
2023/01/22 10:49:04;;;;;;;12.38;9.57;;;;;;;2.07;100.00;103231.22;5327924;28;20023;-76
2023/01/22 10:51:38;;;;;;;11.93;10.40;;;;;;;1.99;100.00;103233.88;5319392;28;20047;-76
2023/01/22 10:54:34;;;;;;;11.02;8.43;;;;;;;2.23;100.00;103234.47;5318391;28;20035;-75
2023/01/22 10:57:34;;;;;;;10.07;8.48;;;;;;;2.23;100.00;103234.47;5322780;28;20055;-76
2023/01/22 11:00:14;;;;;;;12.25;9.48;;;;;;;2.12;100.00;103243.22;5317704;27;20040;-75
2023/01/22 11:02:47;;;;;;;11.82;9.40;;;;;;;1.94;100.00;103246.00;5322582;27;20466;-75
2023/01/22 11:05:22;;;;;;;11.88;9.32;;;;;;;2.06;100.00;103240.69;5328118;27;20023;-76
2023/01/22 11:08:02;;;;;;;11.02;9.48;;;;;;;2.05;100.00;103232.97;5329798;27;20032;-76
2023/01/22 11:10:55;;;;;;;11.48;8.65;;;;;;;2.09;100.00;103224.31;5309569;27;20031;-75
2023/01/22 11:13:41;;;;;;;12.15;8.45;;;;;;;2.10;100.00;103213.09;5310246;27;20032;-75
2023/01/22 11:16:17;;;;;;;11.98;7.72;;;;;;;2.04;100.00;103202.78;5328233;27;20027;-76
2023/01/22 11:18:59;;;;;;;10.73;8.95;;;;;;;2.14;100.00;103214.75;5327018;27;20023;-76
2023/01/22 11:21:36;;;;;;;9.20;8.27;;;;;;;2.09;100.00;103199.31;5318576;28;20118;-75
2023/01/22 11:24:12;;;;;;;12.07;8.80;;;;;;;2.16;100.00;103205.25;5324619;27;20051;-76
2023/01/22 11:26:55;;;;;;;10.18;8.52;;;;;;;2.28;100.00;103204.25;5326588;27;20118;-76
2023/01/22 11:29:33;;;;;;;9.95;8.55;;;;;;;2.23;100.00;103206.03;5327001;27;20051;-76
2023/01/22 11:32:36;;;;;;;11.05;8.88;;;;;;;2.42;100.00;103203.22;5318713;27;20062;-75
2023/01/22 11:35:26;;;;;;;9.80;8.45;;;;;;;2.38;100.00;103205.84;5321891;27;20532;-76
2023/01/22 11:38:50;;;;;;;11.60;8.52;;;;;;;2.54;100.00;103197.03;5324211;27;20032;-75
2023/01/22 11:41:54;;;;;;;12.10;8.73;;;;;;;2.37;100.00;103191.19;5215267;28;20028;-76
2023/01/22 11:44:56;;;;;;;9.88;8.88;;;;;;;2.39;100.00;103186.88;5215765;28;20093;-76
2023/01/22 11:47:30;;;;;;;9.85;8.52;;;;;;;2.25;100.00;103186.19;5329640;27;20057;-76